sensor_id;sensor_type;location;lat;lon;timestamp;pressure;altitude;pressure_sealevel;temperature;humidity
49393;BME280;35268;42.642;23.308;2023-05-09T00:01:10;94225.28;;;13.17;75.46
49393;BME280;35268;42.642;23.308;2023-05-09T00:03:36;94232.34;;;13.22;76.25
49393;BME280;35268;42.642;23.308;2023-05-09T00:06:01;94224.50;;;13.17;75.85
49393;BME280;35268;42.642;23.308;2023-05-09T00:08:27;94218.84;;;13.10;74.05
49393;BME280;35268;42.642;23.308;2023-05-09T00:10:52;94213.84;;;12.99;72.64
49393;BME280;35268;42.642;23.308;2023-05-09T00:13:18;94215.38;;;13.00;73.00
49393;BME280;35268;42.642;23.308;2023-05-09T00:15:44;94214.75;;;13.03;72.50
49393;BME280;35268;42.642;23.308;2023-05-09T00:18:11;94220.59;;;13.05;73.18
49393;BME280;35268;42.642;23.308;2023-05-09T00:20:37;94219.16;;;13.08;74.26
49393;BME280;35268;42.642;23.308;2023-05-09T00:23:05;94218.06;;;13.09;74.67
49393;BME280;35268;42.642;23.308;2023-05-09T00:25:31;94211.44;;;13.07;74.81
49393;BME280;35268;42.642;23.308;2023-05-09T00:27:57;94204.06;;;13.03;74.51
49393;BME280;35268;42.642;23.308;2023-05-09T00:30:23;94204.22;;;13.07;74.12
49393;BME280;35268;42.642;23.308;2023-05-09T00:32:48;94206.09;;;13.07;74.25
49393;BME280;35268;42.642;23.308;2023-05-09T00:35:14;94210.34;;;13.08;74.14
49393;BME280;35268;42.642;23.308;2023-05-09T00:37:40;94203.88;;;13.09;73.90
49393;BME280;35268;42.642;23.308;2023-05-09T00:40:06;94209.69;;;13.11;73.97
49393;BME280;35268;42.642;23.308;2023-05-09T00:42:33;94202.16;;;13.13;73.99
49393;BME280;35268;42.642;23.308;2023-05-09T00:45:00;94210.66;;;13.15;74.78
49393;BME280;35268;42.642;23.308;2023-05-09T00:47:26;94212.88;;;13.13;74.31
49393;BME280;35268;42.642;23.308;2023-05-09T00:49:52;94209.69;;;13.11;74.31
49393;BME280;35268;42.642;23.308;2023-05-09T00:52:18;94215.53;;;13.13;74.38
49393;BME280;35268;42.642;23.308;2023-05-09T00:54:50;94209.06;;;13.14;74.71
49393;BME280;35268;42.642;23.308;2023-05-09T00:57:16;94208.75;;;13.15;74.83
49393;BME280;35268;42.642;23.308;2023-05-09T00:59:41;94206.22;;;13.19;75.91
49393;BME280;35268;42.642;23.308;2023-05-09T01:02:07;94215.50;;;13.21;76.67
49393;BME280;35268;42.642;23.308;2023-05-09T01:04:32;94221.16;;;13.20;76.59
49393;BME280;35268;42.642;23.308;2023-05-09T01:07:03;94215.81;;;13.20;76.76
49393;BME280;35268;42.642;23.308;2023-05-09T01:09:44;94212.38;;;13.19;76.47
49393;BME280;35268;42.642;23.308;2023-05-09T01:12:39;94207.78;;;13.20;76.25
49393;BME280;35268;42.642;23.308;2023-05-09T01:28:16;94207.50;;;13.04;73.96
49393;BME280;35268;42.642;23.308;2023-05-09T01:30:44;94202.47;;;13.02;73.24
49393;BME280;35268;42.642;23.308;2023-05-09T01:33:15;94202.97;;;12.96;73.22
49393;BME280;35268;42.642;23.308;2023-05-09T01:35:43;94204.09;;;12.95;73.02
49393;BME280;35268;42.642;23.308;2023-05-09T01:38:16;94206.63;;;12.91;73.56
49393;BME280;35268;42.642;23.308;2023-05-09T01:40:44;94201.09;;;12.88;73.41
49393;BME280;35268;42.642;23.308;2023-05-09T01:43:13;94204.09;;;12.86;73.42
49393;BME280;35268;42.642;23.308;2023-05-09T01:45:41;94196.41;;;12.84;73.28
49393;BME280;35268;42.642;23.308;2023-05-09T01:48:08;94203.63;;;12.84;73.26
49393;BME280;35268;42.642;23.308;2023-05-09T01:50:36;94203.63;;;12.84;73.50
49393;BME280;35268;42.642;23.308;2023-05-09T01:53:05;94205.22;;;12.85;73.45
49393;BME280;35268;42.642;23.308;2023-05-09T01:55:31;94207.88;;;12.85;73.60
49393;BME280;35268;42.642;23.308;2023-05-09T01:57:58;94208.34;;;12.87;73.61
49393;BME280;35268;42.642;23.308;2023-05-09T02:00:25;94209.13;;;12.88;73.81
49393;BME280;35268;42.642;23.308;2023-05-09T02:02:52;94202.22;;;12.87;73.85
49393;BME280;35268;42.642;23.308;2023-05-09T02:05:17;94205.53;;;12.83;74.02
49393;BME280;35268;42.642;23.308;2023-05-09T02:07:46;94201.28;;;12.82;74.41
49393;BME280;35268;42.642;23.308;2023-05-09T02:10:14;94203.97;;;12.82;74.67
49393;BME280;35268;42.642;23.308;2023-05-09T02:12:40;94205.84;;;12.82;74.55
49393;BME280;35268;42.642;23.308;2023-05-09T02:15:06;94208.84;;;12.80;74.15
49393;BME280;35268;42.642;23.308;2023-05-09T02:17:32;94201.75;;;12.76;74.38
49393;BME280;35268;42.642;23.308;2023-05-09T02:19:57;94196.88;;;12.78;74.12
49393;BME280;35268;42.642;23.308;2023-05-09T02:22:23;94198.28;;;12.84;74.14
49393;BME280;35268;42.642;23.308;2023-05-09T02:24:49;94203.00;;;12.87;74.11
49393;BME280;35268;42.642;23.308;2023-05-09T02:27:14;94205.84;;;12.91;74.13
49393;BME280;35268;42.642;23.308;2023-05-09T02:29:46;94197.47;;;12.92;74.16
49393;BME280;35268;42.642;23.308;2023-05-09T02:32:20;94188.34;;;12.93;74.70
49393;BME280;35268;42.642;23.308;2023-05-09T02:34:47;94201.72;;;12.93;74.87
49393;BME280;35268;42.642;23.308;2023-05-09T02:37:14;94189.91;;;12.94;75.07
49393;BME280;35268;42.642;23.308;2023-05-09T02:39:40;94200.63;;;12.94;75.48
49393;BME280;35268;42.642;23.308;2023-05-09T02:42:08;94191.03;;;12.93;75.88
49393;BME280;35268;42.642;23.308;2023-05-09T02:44:34;94199.06;;;12.93;75.91
49393;BME280;35268;42.642;23.308;2023-05-09T02:47:01;94205.50;;;12.92;75.68
49393;BME280;35268;42.642;23.308;2023-05-09T02:49:27;94199.06;;;12.93;75.50
49393;BME280;35268;42.642;23.308;2023-05-09T02:51:52;94196.06;;;12.95;75.51
49393;BME280;35268;42.642;23.308;2023-05-09T02:54:18;94199.06;;;12.93;75.54
49393;BME280;35268;42.642;23.308;2023-05-09T02:56:43;94200.16;;;12.92;75.39
49393;BME280;35268;42.642;23.308;2023-05-09T02:59:09;94198.59;;;12.91;75.34
49393;BME280;35268;42.642;23.308;2023-05-09T03:01:34;94206.78;;;12.95;75.29
49393;BME280;35268;42.642;23.308;2023-05-09T03:04:00;94209.09;;;12.96;75.11
49393;BME280;35268;42.642;23.308;2023-05-09T03:06:25;94213.38;;;12.97;75.06
49393;BME280;35268;42.642;23.308;2023-05-09T03:08:51;94210.03;;;13.00;74.88
49393;BME280;35268;42.642;23.308;2023-05-09T03:11:16;94204.69;;;13.00;74.94
49393;BME280;35268;42.642;23.308;2023-05-09T03:13:42;94209.88;;;13.05;74.67
49393;BME280;35268;42.642;23.308;2023-05-09T03:16:07;94216.78;;;13.07;74.71
49393;BME280;35268;42.642;23.308;2023-05-09T03:18:35;94212.25;;;13.07;74.78
49393;BME280;35268;42.642;23.308;2023-05-09T03:21:00;94214.13;;;13.07;74.47
49393;BME280;35268;42.642;23.308;2023-05-09T03:23:26;94223.25;;;13.05;74.79
49393;BME280;35268;42.642;23.308;2023-05-09T03:25:51;94232.22;;;13.10;74.21
49393;BME280;35268;42.642;23.308;2023-05-09T03:28:16;94231.09;;;13.11;74.55
49393;BME280;35268;42.642;23.308;2023-05-09T03:30:42;94234.91;;;13.10;73.71
49393;BME280;35268;42.642;23.308;2023-05-09T03:33:07;94235.69;;;13.10;74.20
49393;BME280;35268;42.642;23.308;2023-05-09T03:35:33;94235.69;;;13.10;74.21
49393;BME280;35268;42.642;23.308;2023-05-09T03:37:58;94240.09;;;13.15;74.15
49393;BME280;35268;42.642;23.308;2023-05-09T03:40:24;94244.63;;;13.14;74.18
49393;BME280;35268;42.642;23.308;2023-05-09T03:42:49;94246.22;;;13.15;74.17
49393;BME280;35268;42.642;23.308;2023-05-09T03:45:15;94248.13;;;13.15;74.37
49393;BME280;35268;42.642;23.308;2023-05-09T03:47:40;94244.63;;;13.14;74.49
49393;BME280;35268;42.642;23.308;2023-05-09T03:50:06;94244.16;;;13.12;74.26
49393;BME280;35268;42.642;23.308;2023-05-09T03:52:32;94249.06;;;13.10;74.33
49393;BME280;35268;42.642;23.308;2023-05-09T03:54:57;94250.50;;;13.08;74.54
49393;BME280;35268;42.642;23.308;2023-05-09T03:57:23;94257.72;;;13.07;74.80
49393;BME280;35268;42.642;23.308;2023-05-09T03:59:48;94260.56;;;13.02;75.04
49393;BME280;35268;42.642;23.308;2023-05-09T04:02:14;94256.81;;;13.03;75.00
49393;BME280;35268;42.642;23.308;2023-05-09T04:04:39;94260.72;;;13.05;74.80
49393;BME280;35268;42.642;23.308;2023-05-09T04:07:05;94257.72;;;13.07;74.84
49393;BME280;35268;42.642;23.308;2023-05-09T04:09:31;94264.97;;;13.15;74.63
49393;BME280;35268;42.642;23.308;2023-05-09T04:11:56;94258.16;;;13.18;74.53
49393;BME280;35268;42.642;23.308;2023-05-09T04:14:22;94260.22;;;13.21;74.45
49393;BME280;35268;42.642;23.308;2023-05-09T04:16:47;94252.66;;;13.23;74.41
49393;BME280;35268;42.642;23.308;2023-05-09T04:19:12;94252.47;;;13.28;74.17
49393;BME280;35268;42.642;23.308;2023-05-09T04:21:38;94257.69;;;13.33;73.89
49393;BME280;35268;42.642;23.308;2023-05-09T04:24:03;94255.94;;;13.37;73.58
49393;BME280;35268;42.642;23.308;2023-05-09T04:26:30;94260.19;;;13.38;72.85
49393;BME280;35268;42.642;23.308;2023-05-09T04:28:55;94253.41;;;13.41;72.56
49393;BME280;35268;42.642;23.308;2023-05-09T04:31:21;94252.44;;;13.46;72.59
49393;BME280;35268;42.642;23.308;2023-05-09T04:33:47;94252.56;;;13.49;71.83
49393;BME280;35268;42.642;23.308;2023-05-09T04:36:12;94256.19;;;13.53;71.76
49393;BME280;35268;42.642;23.308;2023-05-09T04:38:38;94250.66;;;13.58;71.11
49393;BME280;35268;42.642;23.308;2023-05-09T04:41:03;94267.34;;;13.64;70.52
49393;BME280;35268;42.642;23.308;2023-05-09T04:43:29;94258.03;;;13.70;70.37
49393;BME280;35268;42.642;23.308;2023-05-09T04:45:55;94262.88;;;13.77;69.38
49393;BME280;35268;42.642;23.308;2023-05-09T04:48:20;94254.31;;;13.83;68.73
49393;BME280;35268;42.642;23.308;2023-05-09T04:50:46;94259.50;;;13.89;68.44
49393;BME280;35268;42.642;23.308;2023-05-09T04:53:13;94266.72;;;13.97;68.25
49393;BME280;35268;42.642;23.308;2023-05-09T04:55:38;94264.16;;;14.00;67.75
49393;BME280;35268;42.642;23.308;2023-05-09T04:58:04;94263.66;;;14.07;67.89
49393;BME280;35268;42.642;23.308;2023-05-09T05:00:30;94262.03;;;14.15;67.58
49393;BME280;35268;42.642;23.308;2023-05-09T05:02:55;94263.88;;;14.23;67.55
49393;BME280;35268;42.642;23.308;2023-05-09T05:05:20;94246.94;;;14.31;66.45
49393;BME280;35268;42.642;23.308;2023-05-09T05:07:46;94246.59;;;14.33;66.20
49393;BME280;35268;42.642;23.308;2023-05-09T05:10:11;94250.84;;;14.34;66.41
49393;BME280;35268;42.642;23.308;2023-05-09T05:12:37;94255.38;;;14.42;65.85
49393;BME280;35268;42.642;23.308;2023-05-09T05:15:03;94248.88;;;14.43;65.60
49393;BME280;35268;42.642;23.308;2023-05-09T05:17:29;94254.97;;;14.52;65.98
49393;BME280;35268;42.642;23.308;2023-05-09T05:19:54;94255.38;;;14.63;65.86
49393;BME280;35268;42.642;23.308;2023-05-09T05:22:20;94253.97;;;14.66;65.07
49393;BME280;35268;42.642;23.308;2023-05-09T05:24:45;94255.66;;;14.70;64.48
49393;BME280;35268;42.642;23.308;2023-05-09T05:27:11;94254.19;;;14.73;64.55
49393;BME280;35268;42.642;23.308;2023-05-09T05:29:36;94256.69;;;14.78;64.30
49393;BME280;35268;42.642;23.308;2023-05-09T05:32:02;94252.88;;;14.79;64.12
49393;BME280;35268;42.642;23.308;2023-05-09T05:34:27;94262.09;;;14.90;64.28
49393;BME280;35268;42.642;23.308;2023-05-09T05:36:53;94263.91;;;14.98;63.78
49393;BME280;35268;42.642;23.308;2023-05-09T05:39:18;94263.06;;;15.07;63.61
49393;BME280;35268;42.642;23.308;2023-05-09T05:41:44;94262.50;;;15.13;63.23
49393;BME280;35268;42.642;23.308;2023-05-09T05:44:09;94261.94;;;15.20;63.12
49393;BME280;35268;42.642;23.308;2023-05-09T05:46:35;94258.63;;;15.23;63.13
49393;BME280;35268;42.642;23.308;2023-05-09T05:49:00;94270.25;;;15.27;62.68
49393;BME280;35268;42.642;23.308;2023-05-09T05:51:26;94261.75;;;15.25;63.13
49393;BME280;35268;42.642;23.308;2023-05-09T05:53:51;94267.56;;;15.27;63.19
49393;BME280;35268;42.642;23.308;2023-05-09T05:56:17;94267.34;;;15.32;62.60
49393;BME280;35268;42.642;23.308;2023-05-09T05:58:42;94270.59;;;15.25;63.42
49393;BME280;35268;42.642;23.308;2023-05-09T06:01:08;94273.69;;;15.15;63.58
49393;BME280;35268;42.642;23.308;2023-05-09T06:03:33;94272.59;;;15.16;63.82
49393;BME280;35268;42.642;23.308;2023-05-09T06:05:58;94263.41;;;15.17;63.45
49393;BME280;35268;42.642;23.308;2023-05-09T06:08:24;94268.44;;;15.19;63.72
49393;BME280;35268;42.642;23.308;2023-05-09T06:10:50;94266.69;;;15.23;63.86
49393;BME280;35268;42.642;23.308;2023-05-09T06:13:15;94272.59;;;15.16;63.93
49393;BME280;35268;42.642;23.308;2023-05-09T06:15:41;94270.47;;;15.22;63.94
49393;BME280;35268;42.642;23.308;2023-05-09T06:18:06;94266.00;;;15.26;63.25
49393;BME280;35268;42.642;23.308;2023-05-09T06:20:33;94272.94;;;15.27;63.40
49393;BME280;35268;42.642;23.308;2023-05-09T06:23:00;94267.34;;;15.32;63.35
49393;BME280;35268;42.642;23.308;2023-05-09T06:25:25;94265.69;;;15.40;62.74
49393;BME280;35268;42.642;23.308;2023-05-09T06:27:51;94265.81;;;15.43;62.66
49393;BME280;35268;42.642;23.308;2023-05-09T06:30:16;94271.31;;;15.47;61.91
49393;BME280;35268;42.642;23.308;2023-05-09T06:32:41;94274.31;;;15.45;61.69
49393;BME280;35268;42.642;23.308;2023-05-09T06:35:07;94270.88;;;15.45;62.28
49393;BME280;35268;42.642;23.308;2023-05-09T06:37:33;94269.97;;;15.41;62.06
49393;BME280;35268;42.642;23.308;2023-05-09T06:39:58;94269.16;;;15.40;61.88
49393;BME280;35268;42.642;23.308;2023-05-09T06:42:24;94271.38;;;15.38;61.93
49393;BME280;35268;42.642;23.308;2023-05-09T06:44:49;94273.44;;;15.41;62.00
49393;BME280;35268;42.642;23.308;2023-05-09T06:47:14;94277.47;;;15.48;61.08
49393;BME280;35268;42.642;23.308;2023-05-09T06:49:40;94260.59;;;15.59;60.55
49393;BME280;35268;42.642;23.308;2023-05-09T06:52:05;94266.16;;;15.67;59.97
49393;BME280;35268;42.642;23.308;2023-05-09T06:54:31;94265.63;;;15.73;59.66
49393;BME280;35268;42.642;23.308;2023-05-09T06:56:56;94260.06;;;15.78;59.74
49393;BME280;35268;42.642;23.308;2023-05-09T06:59:22;94264.09;;;15.84;60.17
49393;BME280;35268;42.642;23.308;2023-05-09T07:01:48;94267.66;;;15.89;59.68
49393;BME280;35268;42.642;23.308;2023-05-09T07:04:13;94267.66;;;16.01;59.61
49393;BME280;35268;42.642;23.308;2023-05-09T07:06:38;94262.84;;;16.07;59.38
49393;BME280;35268;42.642;23.308;2023-05-09T07:09:04;94258.81;;;16.13;59.70
49393;BME280;35268;42.642;23.308;2023-05-09T07:11:36;94255.88;;;16.18;59.27
49393;BME280;35268;42.642;23.308;2023-05-09T07:14:02;94260.16;;;16.19;58.85
49393;BME280;35268;42.642;23.308;2023-05-09T07:16:28;94265.19;;;16.20;58.66
49393;BME280;35268;42.642;23.308;2023-05-09T07:18:54;94259.91;;;16.24;58.90
49393;BME280;35268;42.642;23.308;2023-05-09T07:21:20;94260.72;;;16.24;58.81
49393;BME280;35268;42.642;23.308;2023-05-09T07:23:45;94267.19;;;16.23;58.56
49393;BME280;35268;42.642;23.308;2023-05-09T07:26:11;94264.19;;;16.13;58.92
49393;BME280;35268;42.642;23.308;2023-05-09T07:28:36;94265.53;;;16.07;59.47
49393;BME280;35268;42.642;23.308;2023-05-09T07:31:02;94263.50;;;16.03;59.62
49393;BME280;35268;42.642;23.308;2023-05-09T07:33:27;94261.06;;;15.98;58.70
49393;BME280;35268;42.642;23.308;2023-05-09T07:35:53;94251.09;;;15.87;58.34
49393;BME280;35268;42.642;23.308;2023-05-09T07:38:18;94268.19;;;15.70;58.14
49393;BME280;35268;42.642;23.308;2023-05-09T07:40:44;94272.31;;;15.55;58.67
49393;BME280;35268;42.642;23.308;2023-05-09T07:43:09;94262.69;;;15.54;58.99
49393;BME280;35268;42.642;23.308;2023-05-09T07:45:35;94272.22;;;15.51;58.82
49393;BME280;35268;42.642;23.308;2023-05-09T07:48:00;94274.22;;;15.54;58.83
49393;BME280;35268;42.642;23.308;2023-05-09T07:50:26;94275.34;;;15.53;58.15
49393;BME280;35268;42.642;23.308;2023-05-09T07:52:51;94272.44;;;15.58;58.62
49393;BME280;35268;42.642;23.308;2023-05-09T07:55:17;94268.97;;;15.70;58.46
49393;BME280;35268;42.642;23.308;2023-05-09T07:57:42;94260.94;;;15.82;57.93
49393;BME280;35268;42.642;23.308;2023-05-09T08:00:08;94262.97;;;15.98;57.88
49393;BME280;35268;42.642;23.308;2023-05-09T08:02:34;94259.03;;;16.08;57.09
49393;BME280;35268;42.642;23.308;2023-05-09T08:05:00;94258.91;;;16.29;56.50
49393;BME280;35268;42.642;23.308;2023-05-09T08:07:26;94260.44;;;16.42;56.29
49393;BME280;35268;42.642;23.308;2023-05-09T08:09:51;94251.09;;;16.52;55.33
49393;BME280;35268;42.642;23.308;2023-05-09T08:12:16;94254.53;;;16.64;54.62
49393;BME280;35268;42.642;23.308;2023-05-09T08:14:42;94255.63;;;16.76;54.05
49393;BME280;35268;42.642;23.308;2023-05-09T08:17:08;94258.44;;;16.79;53.51
49393;BME280;35268;42.642;23.308;2023-05-09T08:19:33;94257.53;;;16.88;52.97
49393;BME280;35268;42.642;23.308;2023-05-09T08:21:58;94255.13;;;16.98;52.92
49393;BME280;35268;42.642;23.308;2023-05-09T08:24:25;94253.16;;;17.11;52.79
49393;BME280;35268;42.642;23.308;2023-05-09T08:26:50;94254.91;;;17.19;52.89
49393;BME280;35268;42.642;23.308;2023-05-09T08:29:16;94257.44;;;17.28;52.89
49393;BME280;35268;42.642;23.308;2023-05-09T08:31:42;94262.13;;;17.31;52.64
49393;BME280;35268;42.642;23.308;2023-05-09T08:34:07;94254.22;;;17.22;52.93
49393;BME280;35268;42.642;23.308;2023-05-09T08:36:33;94259.78;;;17.14;53.00
49393;BME280;35268;42.642;23.308;2023-05-09T08:38:58;94265.22;;;17.17;53.25
49393;BME280;35268;42.642;23.308;2023-05-09T08:41:25;94260.59;;;17.30;52.85
49393;BME280;35268;42.642;23.308;2023-05-09T08:43:52;94262.91;;;17.32;53.18
49393;BME280;35268;42.642;23.308;2023-05-09T08:46:23;94256.06;;;17.34;53.48
49393;BME280;35268;42.642;23.308;2023-05-09T08:48:50;94256.25;;;17.41;54.66
49393;BME280;35268;42.642;23.308;2023-05-09T08:51:16;94259.81;;;17.45;53.89
49393;BME280;35268;42.642;23.308;2023-05-09T08:53:42;94255.72;;;17.52;53.92
49393;BME280;35268;42.642;23.308;2023-05-09T08:56:08;94261.13;;;17.52;53.62
49393;BME280;35268;42.642;23.308;2023-05-09T08:58:34;94253.97;;;17.43;52.29
49393;BME280;35268;42.642;23.308;2023-05-09T09:01:02;94261.19;;;17.39;52.49
49393;BME280;35268;42.642;23.308;2023-05-09T09:03:36;94264.16;;;17.34;53.22
49393;BME280;35268;42.642;23.308;2023-05-09T09:06:01;94255.19;;;17.30;53.15
49393;BME280;35268;42.642;23.308;2023-05-09T09:08:27;94253.44;;;17.22;52.76
49393;BME280;35268;42.642;23.308;2023-05-09T09:10:53;94260.06;;;17.24;53.06
49393;BME280;35268;42.642;23.308;2023-05-09T09:13:19;94254.38;;;17.14;53.25
49393;BME280;35268;42.642;23.308;2023-05-09T09:15:47;94256.09;;;17.06;53.16
49393;BME280;35268;42.642;23.308;2023-05-09T09:18:21;94258.94;;;16.97;53.38
49393;BME280;35268;42.642;23.308;2023-05-09T09:20:50;94263.25;;;16.86;54.22
49393;BME280;35268;42.642;23.308;2023-05-09T09:23:18;94259.00;;;16.73;54.48
49393;BME280;35268;42.642;23.308;2023-05-09T09:25:45;94260.38;;;16.67;54.51
49393;BME280;35268;42.642;23.308;2023-05-09T09:28:11;94249.63;;;16.54;54.66
49393;BME280;35268;42.642;23.308;2023-05-09T09:30:43;94254.72;;;16.43;54.75
49393;BME280;35268;42.642;23.308;2023-05-09T09:33:08;94256.88;;;16.25;55.02
49393;BME280;35268;42.642;23.308;2023-05-09T09:35:38;94255.88;;;16.18;55.93
49393;BME280;35268;42.642;23.308;2023-05-09T09:38:05;94271.56;;;16.03;56.07
49393;BME280;35268;42.642;23.308;2023-05-09T09:40:30;94257.38;;;15.91;56.53
49393;BME280;35268;42.642;23.308;2023-05-09T09:42:56;94261.28;;;15.93;56.67
49393;BME280;35268;42.642;23.308;2023-05-09T09:45:21;94263.19;;;15.93;56.78
49393;BME280;35268;42.642;23.308;2023-05-09T09:47:47;94263.44;;;15.88;57.19
49393;BME280;35268;42.642;23.308;2023-05-09T09:50:18;94259.41;;;15.81;57.83
49393;BME280;35268;42.642;23.308;2023-05-09T09:52:54;94262.28;;;15.76;57.89
49393;BME280;35268;42.642;23.308;2023-05-09T09:55:21;94264.09;;;15.72;58.13
49393;BME280;35268;42.642;23.308;2023-05-09T09:57:47;94267.97;;;15.62;58.07
49393;BME280;35268;42.642;23.308;2023-05-09T10:00:16;94268.97;;;15.70;58.01
49393;BME280;35268;42.642;23.308;2023-05-09T10:03:06;94267.75;;;15.68;57.83
49393;BME280;35268;42.642;23.308;2023-05-09T10:05:31;94264.03;;;15.60;57.65
49393;BME280;35268;42.642;23.308;2023-05-09T10:08:03;94258.00;;;15.63;57.94
49393;BME280;35268;42.642;23.308;2023-05-09T10:10:36;94256.19;;;15.67;57.55
49393;BME280;35268;42.642;23.308;2023-05-09T10:13:09;94256.91;;;15.76;57.79
49393;BME280;35268;42.642;23.308;2023-05-09T10:15:36;94247.19;;;15.84;57.85
49393;BME280;35268;42.642;23.308;2023-05-09T10:18:02;94249.09;;;15.96;57.44
49393;BME280;35268;42.642;23.308;2023-05-09T10:20:32;94249.19;;;15.99;57.66
49393;BME280;35268;42.642;23.308;2023-05-09T10:23:00;94252.22;;;16.10;58.25
49393;BME280;35268;42.642;23.308;2023-05-09T10:27:59;94249.81;;;16.33;57.91
49393;BME280;35268;42.642;23.308;2023-05-09T10:30:31;94243.41;;;16.38;57.51
49393;BME280;35268;42.642;23.308;2023-05-09T10:33:08;94247.19;;;16.49;57.64
49393;BME280;35268;42.642;23.308;2023-05-09T10:35:36;94247.38;;;16.56;57.42
49393;BME280;35268;42.642;23.308;2023-05-09T10:38:05;94247.16;;;16.61;56.75
49393;BME280;35268;42.642;23.308;2023-05-09T10:40:33;94251.41;;;16.62;56.27
49393;BME280;35268;42.642;23.308;2023-05-09T10:42:58;94253.16;;;16.71;56.51
49393;BME280;35268;42.642;23.308;2023-05-09T10:45:24;94246.78;;;16.75;56.17
49393;BME280;35268;42.642;23.308;2023-05-09T10:47:51;94253.63;;;16.73;55.62
49393;BME280;35268;42.642;23.308;2023-05-09T10:50:18;94258.66;;;16.74;55.68
49393;BME280;35268;42.642;23.308;2023-05-09T10:55:50;94248.41;;;16.92;56.17
49393;BME280;35268;42.642;23.308;2023-05-09T10:58:23;94246.59;;;16.96;55.73
49393;BME280;35268;42.642;23.308;2023-05-09T11:00:49;94241.50;;;17.07;55.03
49393;BME280;35268;42.642;23.308;2023-05-09T11:03:15;94235.50;;;16.98;54.60
49393;BME280;35268;42.642;23.308;2023-05-09T11:05:44;94238.38;;;17.05;55.05
49393;BME280;35268;42.642;23.308;2023-05-09T11:08:19;94234.06;;;17.16;55.12
49393;BME280;35268;42.642;23.308;2023-05-09T11:10:45;94241.78;;;17.18;55.67
49393;BME280;35268;42.642;23.308;2023-05-09T11:13:11;94238.16;;;17.26;55.11
49393;BME280;35268;42.642;23.308;2023-05-09T11:16:10;94236.06;;;17.35;54.88
49393;BME280;35268;42.642;23.308;2023-05-09T11:18:49;94237.13;;;17.47;54.82
49393;BME280;35268;42.642;23.308;2023-05-09T11:21:15;94248.50;;;17.56;54.08
49393;BME280;35268;42.642;23.308;2023-05-09T11:23:41;94241.47;;;17.67;53.57
49393;BME280;35268;42.642;23.308;2023-05-09T11:26:07;94244.50;;;17.65;52.72
49393;BME280;35268;42.642;23.308;2023-05-09T11:28:37;94243.31;;;17.63;53.49
49393;BME280;35268;42.642;23.308;2023-05-09T11:31:16;94241.53;;;17.71;53.27
49393;BME280;35268;42.642;23.308;2023-05-09T11:33:44;94245.13;;;17.75;52.91
49393;BME280;35268;42.642;23.308;2023-05-09T11:36:26;94239.47;;;17.80;52.65
49393;BME280;35268;42.642;23.308;2023-05-09T11:39:23;94233.31;;;17.79;52.54
49393;BME280;35268;42.642;23.308;2023-05-09T11:41:49;94241.66;;;17.90;52.46
49393;BME280;35268;42.642;23.308;2023-05-09T11:44:17;94248.44;;;17.84;52.39
49393;BME280;35268;42.642;23.308;2023-05-09T11:46:44;94243.84;;;17.84;52.65
49393;BME280;35268;42.642;23.308;2023-05-09T11:49:10;94249.38;;;17.76;52.53
49393;BME280;35268;42.642;23.308;2023-05-09T11:51:35;94241.72;;;17.78;52.38
49393;BME280;35268;42.642;23.308;2023-05-09T11:54:03;94238.69;;;17.79;52.57
49393;BME280;35268;42.642;23.308;2023-05-09T11:56:29;94238.81;;;17.83;52.35
49393;BME280;35268;42.642;23.308;2023-05-09T11:58:55;94238.59;;;17.76;52.21
49393;BME280;35268;42.642;23.308;2023-05-09T12:01:21;94239.91;;;17.66;52.25
49393;BME280;35268;42.642;23.308;2023-05-09T12:03:50;94247.97;;;17.50;52.00
49393;BME280;35268;42.642;23.308;2023-05-09T12:06:17;94235.72;;;17.37;51.88
49393;BME280;35268;42.642;23.308;2023-05-09T12:08:43;94238.94;;;17.27;52.15
49393;BME280;35268;42.642;23.308;2023-05-09T12:11:09;94240.97;;;17.01;53.16
49393;BME280;35268;42.642;23.308;2023-05-09T12:13:51;94245.22;;;16.74;54.12
49393;BME280;35268;42.642;23.308;2023-05-09T12:16:18;94243.25;;;16.59;54.39
49393;BME280;35268;42.642;23.308;2023-05-09T12:18:48;94234.19;;;16.51;54.99
49393;BME280;35268;42.642;23.308;2023-05-09T12:21:15;94236.66;;;16.44;55.75
49393;BME280;35268;42.642;23.308;2023-05-09T12:23:41;94240.25;;;16.48;55.92
49393;BME280;35268;42.642;23.308;2023-05-09T12:26:07;94237.69;;;16.39;54.99
49393;BME280;35268;42.642;23.308;2023-05-09T12:28:33;94238.50;;;16.28;55.51
49393;BME280;35268;42.642;23.308;2023-05-09T12:30:59;94241.22;;;16.15;56.05
49393;BME280;35268;42.642;23.308;2023-05-09T12:33:25;94246.50;;;15.87;56.35
49393;BME280;35268;42.642;23.308;2023-05-09T12:36:10;94235.84;;;15.66;57.03
49393;BME280;35268;42.642;23.308;2023-05-09T12:38:35;94225.66;;;15.47;57.88
49393;BME280;35268;42.642;23.308;2023-05-09T12:41:09;94238.50;;;15.41;58.43
49393;BME280;35268;42.642;23.308;2023-05-09T12:43:37;94236.47;;;15.26;59.02
49393;BME280;35268;42.642;23.308;2023-05-09T12:46:04;94234.66;;;15.18;59.01
49393;BME280;35268;42.642;23.308;2023-05-09T12:48:34;94242.53;;;15.02;59.41
49393;BME280;35268;42.642;23.308;2023-05-09T12:51:05;94238.41;;;14.92;60.04
49393;BME280;35268;42.642;23.308;2023-05-09T12:53:39;94223.00;;;14.68;61.14
49393;BME280;35268;42.642;23.308;2023-05-09T12:56:12;94225.31;;;14.57;61.40
49393;BME280;35268;42.642;23.308;2023-05-09T12:58:42;94217.50;;;14.43;62.26
49393;BME280;35268;42.642;23.308;2023-05-09T13:01:11;94213.00;;;14.35;62.48
49393;BME280;35268;42.642;23.308;2023-05-09T13:03:38;94214.22;;;14.38;62.94
49393;BME280;35268;42.642;23.308;2023-05-09T13:06:05;94209.00;;;14.41;62.85
49393;BME280;35268;42.642;23.308;2023-05-09T13:08:35;94210.50;;;14.51;62.68